Terminal Aerodrome Forecast
Issued by NWS

Home | Current Version | Previous Version | Text Only | Print | Product List | Glossary On
Versions: 1 2 3 4 5 6 7 8 9 10 11 12 13 14 15 16 17 18 19
000
FTUS41 KCAR 040737 AAA
TAFFVE
TAF AMD
KFVE 040737Z 0408/0506 17013KT 3/4SM -SN OVC011
     FM040800 17013KT 2SM -SN OVC015
     FM041000 19010KT P6SM OVC020
     FM041500 23012G20KT P6SM BKN030
     FM050400 28010KT P6SM SCT100=

USA.gov is the U.S. government's official web portal to all federal, state and local government web resources and services.